createdAt,value
2022-08-26T00:01:06.247Z,10.3
2022-08-26T00:03:32.858Z,10.2
2022-08-26T00:05:59.522Z,10.4
2022-08-26T00:08:26.106Z,10.2
2022-08-26T00:10:52.772Z,10.7
2022-08-26T00:13:19.349Z,10.9
2022-08-26T00:15:45.995Z,10.6
2022-08-26T00:18:12.607Z,10.2
2022-08-26T00:20:39.225Z,9.7
2022-08-26T00:23:05.850Z,11.2
2022-08-26T00:27:57.603Z,11.2
2022-08-26T00:30:24.226Z,12
2022-08-26T00:32:50.838Z,10.7
2022-08-26T00:35:17.464Z,11.1
2022-08-26T00:37:44.093Z,11
2022-08-26T00:40:10.723Z,11
2022-08-26T00:42:37.375Z,11.2
2022-08-26T00:45:03.978Z,11.5
2022-08-26T00:47:30.584Z,12.1
2022-08-26T00:49:57.203Z,10.9
2022-08-26T00:52:23.823Z,12.3
2022-08-26T00:54:50.487Z,12.3
2022-08-26T00:57:15.580Z,11.1
2022-08-26T00:59:42.200Z,10.7
2022-08-26T01:02:08.814Z,11.2
2022-08-26T01:04:35.442Z,11.3
2022-08-26T01:07:02.076Z,11
2022-08-26T01:09:28.693Z,11.8
2022-08-26T01:11:55.313Z,10.7
2022-08-26T01:14:21.935Z,11.3
2022-08-26T01:16:48.548Z,12.6
2022-08-26T01:19:15.181Z,11.8
2022-08-26T01:21:41.808Z,11.3
2022-08-26T01:24:08.430Z,11.8
2022-08-26T01:26:35.050Z,10.7
2022-08-26T01:29:00.180Z,11.7
2022-08-26T01:31:26.815Z,12
2022-08-26T01:33:53.414Z,12.4
2022-08-26T01:36:20.037Z,11.4
2022-08-26T01:38:46.660Z,11
2022-08-26T01:41:13.280Z,11
2022-08-26T01:43:39.922Z,10.8
2022-08-26T01:46:06.542Z,11.8
2022-08-26T01:48:33.203Z,12
2022-08-26T01:50:59.778Z,11.6
2022-08-26T01:53:26.400Z,12
2022-08-26T01:55:53.036Z,12.4
2022-08-26T01:58:19.643Z,12.8
2022-08-26T02:00:44.773Z,12.4
2022-08-26T02:03:11.396Z,11.2
2022-08-26T02:05:38.013Z,11.8
2022-08-26T02:08:04.643Z,11.5
2022-08-26T02:10:31.255Z,11.3
2022-08-26T02:12:57.890Z,12.3
2022-08-26T02:15:24.505Z,12.7
2022-08-26T02:17:52.565Z,12
2022-08-26T02:20:17.758Z,12.3
2022-08-26T02:22:44.378Z,13
2022-08-26T02:25:10.999Z,12
2022-08-26T02:27:37.637Z,11.9
2022-08-26T02:30:04.238Z,11.8
2022-08-26T02:32:30.854Z,12.1
2022-08-26T02:34:56.007Z,11.6
2022-08-26T02:37:22.602Z,11.7
2022-08-26T02:39:49.242Z,10.1
2022-08-26T02:42:15.864Z,12.3
2022-08-26T02:44:42.489Z,12.7
2022-08-26T02:47:09.102Z,12.7
2022-08-26T02:49:35.728Z,12.3
2022-08-26T02:52:02.349Z,13.1
2022-08-26T02:54:28.972Z,12.6
2022-08-26T02:56:55.598Z,12.2
2022-08-26T02:59:22.222Z,12.4
2022-08-26T03:01:48.836Z,13.3
2022-08-26T03:04:15.470Z,14
2022-08-26T03:06:40.599Z,12.6
2022-08-26T03:09:07.216Z,13.9
2022-08-26T03:11:33.860Z,14.9
2022-08-26T03:14:00.461Z,13.1
2022-08-26T03:16:27.076Z,14.1
2022-08-26T03:18:53.698Z,13.4
2022-08-26T03:21:20.333Z,14.2
2022-08-26T03:23:46.960Z,13.8
2022-08-26T03:28:40.213Z,14
2022-08-26T03:31:06.818Z,15.7
2022-08-26T03:36:00.089Z,13.8
2022-08-26T03:38:25.199Z,13.7
2022-08-26T03:40:51.826Z,14.4
2022-08-26T03:43:18.433Z,13.8
2022-08-26T03:45:45.059Z,14.1
2022-08-26T03:48:11.699Z,14.2
2022-08-26T03:50:38.309Z,14
2022-08-26T03:53:04.936Z,14.1
2022-08-26T03:55:31.558Z,14.3
2022-08-26T03:57:58.190Z,13.9
2022-08-26T04:00:24.810Z,13.4
2022-08-26T04:02:51.424Z,15
2022-08-26T04:05:18.053Z,14.7
2022-08-26T04:07:44.669Z,14.5
2022-08-26T04:12:36.439Z,15.5
2022-08-26T04:15:03.054Z,15.2
2022-08-26T04:17:28.182Z,15.2
2022-08-26T04:19:53.308Z,13.7
2022-08-26T04:24:46.584Z,15
2022-08-26T04:27:13.165Z,14.2
2022-08-26T04:29:39.790Z,14.6
2022-08-26T04:32:06.409Z,15.5
2022-08-26T04:34:32.352Z,15.8
2022-08-26T04:36:58.960Z,16.5
2022-08-26T04:39:25.591Z,16.4
2022-08-26T04:41:52.194Z,15.2
2022-08-26T04:44:18.824Z,15.3
2022-08-26T04:46:45.453Z,14.5
2022-08-26T04:49:12.080Z,14.7
2022-08-26T04:51:37.209Z,15.6
2022-08-26T04:54:03.830Z,14.9
2022-08-26T04:56:30.447Z,15
2022-08-26T04:58:57.072Z,15.4
2022-08-26T05:01:23.698Z,16
2022-08-26T05:03:50.317Z,15.8
2022-08-26T05:06:16.945Z,16.2
2022-08-26T05:08:43.577Z,16
2022-08-26T05:13:35.320Z,16.9
2022-08-26T05:16:01.944Z,15.5
2022-08-26T05:18:28.568Z,15.1
2022-08-26T05:20:53.687Z,14.5
2022-08-26T05:23:18.824Z,14.2
2022-08-26T05:25:45.429Z,14.2
2022-08-26T05:28:12.066Z,14.6
2022-08-26T05:30:38.676Z,14.1
2022-08-26T05:33:05.319Z,14.5
2022-08-26T05:35:31.959Z,14.8
2022-08-26T05:37:58.563Z,15.5
2022-08-26T05:40:25.181Z,15.3
2022-08-26T05:42:51.792Z,15
2022-08-26T05:45:18.413Z,14.8
2022-08-26T05:47:43.553Z,14.8
2022-08-26T05:50:10.173Z,14.3
2022-08-26T05:52:36.805Z,14
2022-08-26T05:55:03.421Z,13.4
2022-08-26T05:57:30.040Z,13.8
2022-08-26T05:59:56.658Z,14.5
2022-08-26T06:02:23.297Z,13.8
2022-08-26T06:04:49.927Z,14.8
2022-08-26T06:07:16.541Z,14.5
2022-08-26T06:09:43.157Z,13.8
2022-08-26T06:12:09.774Z,12.8
2022-08-26T06:14:36.409Z,13.9
2022-08-26T06:17:03.046Z,14
2022-08-26T06:19:28.142Z,12.4
2022-08-26T06:24:21.392Z,13.4
2022-08-26T06:26:48.019Z,14.5
2022-08-26T06:29:14.644Z,14.6
2022-08-26T06:31:41.283Z,14.7
2022-08-26T06:34:07.888Z,15.6
2022-08-26T06:39:01.128Z,13.7
2022-08-26T06:41:27.754Z,14.2
2022-08-26T06:43:54.391Z,14.8
2022-08-26T06:46:21.004Z,14.8
2022-08-26T06:48:47.640Z,14.5
2022-08-26T06:51:12.760Z,12.8
2022-08-26T06:53:39.365Z,13
2022-08-26T06:56:05.995Z,12.7
2022-08-26T06:58:32.610Z,13.2
2022-08-26T07:00:59.244Z,12.2
2022-08-26T07:03:25.862Z,11.2
2022-08-26T07:05:52.498Z,12.3
2022-08-26T07:08:19.108Z,11.3
2022-08-26T07:10:45.726Z,12.7
2022-08-26T07:13:11.856Z,13.2
2022-08-26T07:15:38.488Z,11.8
2022-08-26T07:18:05.106Z,12
2022-08-26T07:20:31.724Z,12.9
2022-08-26T07:22:58.342Z,13.1
2022-08-26T07:25:23.471Z,13
2022-08-26T07:27:50.105Z,12.7
2022-08-26T07:30:16.725Z,11.8
2022-08-26T07:32:43.349Z,12.4
2022-08-26T07:35:09.973Z,11.5
2022-08-26T07:40:03.214Z,11.3
2022-08-26T07:42:29.837Z,8.9
2022-08-26T07:44:56.453Z,9.4
2022-08-26T07:47:23.078Z,8.9
2022-08-26T07:49:49.708Z,9.9
2022-08-26T07:52:16.324Z,8.5
2022-08-26T07:54:42.949Z,8.6
2022-08-26T07:57:08.099Z,8.4
2022-08-26T07:59:34.708Z,8.2
2022-08-26T08:02:01.331Z,8.2
2022-08-26T08:06:54.564Z,7
2022-08-26T08:09:21.209Z,7
2022-08-26T08:11:47.825Z,7.9
2022-08-26T08:14:14.441Z,7.4
2022-08-26T08:16:41.065Z,7.9
2022-08-26T08:21:34.316Z,7.9
2022-08-26T08:23:59.437Z,8
2022-08-26T08:28:51.198Z,7.5
2022-08-26T08:31:17.816Z,7.6
2022-08-26T08:33:44.451Z,6.6
2022-08-26T08:36:11.060Z,7.3
2022-08-26T08:38:37.701Z,6.8
2022-08-26T08:41:04.321Z,7.4
2022-08-26T08:43:30.931Z,7.5
2022-08-26T08:45:57.595Z,7.4
2022-08-26T08:50:50.792Z,7
2022-08-26T08:53:17.419Z,6.7
2022-08-26T08:55:44.047Z,7.7
2022-08-26T08:58:09.177Z,7.1
2022-08-26T09:00:35.794Z,7.2
2022-08-26T09:03:02.423Z,7.4
2022-08-26T09:05:29.043Z,7.4
2022-08-26T09:07:55.679Z,7.8
2022-08-26T09:10:22.298Z,7.4
2022-08-26T09:12:48.918Z,7.8
2022-08-26T09:15:15.532Z,7.5
2022-08-26T09:17:42.175Z,8.3
2022-08-26T09:20:08.788Z,8
2022-08-26T09:25:00.546Z,9.2
2022-08-26T09:29:52.307Z,9.2
2022-08-26T09:34:44.042Z,9.4
2022-08-26T09:37:09.171Z,9.1
2022-08-26T09:39:35.811Z,8.9
2022-08-26T09:42:02.424Z,8.7
2022-08-26T09:44:29.037Z,9.5
2022-08-26T09:49:20.794Z,9.3
2022-08-26T09:51:47.436Z,8.9
2022-08-26T09:54:14.044Z,9.2
2022-08-26T09:56:40.683Z,9.6
2022-08-26T09:59:07.295Z,9.1
2022-08-26T10:04:00.542Z,10.3
2022-08-26T10:06:27.162Z,9.9
2022-08-26T10:08:53.790Z,10.3
2022-08-26T10:11:19.959Z,10
2022-08-26T10:13:46.585Z,9
2022-08-26T10:16:13.217Z,10.5
2022-08-26T10:18:38.338Z,8.9
2022-08-26T10:21:04.957Z,8.9
2022-08-26T10:23:31.582Z,9.2
2022-08-26T10:25:58.218Z,8.1
2022-08-26T10:28:24.843Z,9.2
2022-08-26T10:30:51.466Z,9.3
2022-08-26T10:33:18.081Z,9.1
2022-08-26T10:35:44.702Z,8.5
2022-08-26T10:38:11.335Z,8
2022-08-26T10:40:36.465Z,8.8
2022-08-26T10:43:02.348Z,8.3
2022-08-26T10:45:27.478Z,9.5
2022-08-26T10:47:54.114Z,8.9
2022-08-26T10:50:20.719Z,9.8
2022-08-26T10:52:47.353Z,9
2022-08-26T10:55:13.991Z,8.9
2022-08-26T10:57:40.591Z,9.1
2022-08-26T11:00:07.225Z,9.6
2022-08-26T11:02:33.834Z,9
2022-08-26T11:05:00.465Z,9.1
2022-08-26T11:07:27.087Z,9.8
2022-08-26T11:09:52.215Z,9
2022-08-26T11:12:17.349Z,9.4
2022-08-26T11:14:43.973Z,8.7
2022-08-26T11:17:10.603Z,9
2022-08-26T11:19:37.213Z,9.4
2022-08-26T11:22:03.848Z,10.1
2022-08-26T11:24:30.479Z,9.2
2022-08-26T11:26:57.091Z,9.8
2022-08-26T11:29:23.721Z,9.2
2022-08-26T11:31:49.557Z,9.6
2022-08-26T11:36:42.810Z,7.8
2022-08-26T11:39:09.439Z,9
2022-08-26T11:41:36.070Z,7.6
2022-08-26T11:44:01.190Z,8.6
2022-08-26T11:46:27.795Z,8.2
2022-08-26T11:48:54.427Z,8.2
2022-08-26T11:51:21.057Z,8.2
2022-08-26T11:53:47.680Z,8
2022-08-26T11:56:14.295Z,8.6
2022-08-26T11:58:40.912Z,8.9
2022-08-26T12:01:07.551Z,8.5
2022-08-26T12:03:34.177Z,8.4
2022-08-26T12:06:00.778Z,8.5
2022-08-26T12:08:27.404Z,9
2022-08-26T12:10:54.047Z,9.1
2022-08-26T12:13:20.667Z,8.4
2022-08-26T12:15:45.787Z,8.5
2022-08-26T12:18:12.409Z,8.4
2022-08-26T12:20:39.029Z,8.4
2022-08-26T12:23:04.764Z,8.8
2022-08-26T12:25:31.395Z,8.8
2022-08-26T12:27:58.004Z,8.3
2022-08-26T12:30:24.638Z,8.6
2022-08-26T12:32:51.249Z,8.7
2022-08-26T12:35:17.884Z,8.1
2022-08-26T12:40:11.113Z,8.2
2022-08-26T12:45:04.359Z,7.8
2022-08-26T12:47:29.488Z,7.8
2022-08-26T12:49:56.116Z,8.7
2022-08-26T12:52:22.740Z,7.8
2022-08-26T12:54:49.369Z,7.9
2022-08-26T12:59:42.607Z,8.4
2022-08-26T13:02:07.747Z,8.3
2022-08-26T13:04:34.362Z,8.6
2022-08-26T13:09:26.131Z,8.3
2022-08-26T13:14:19.360Z,8.5
2022-08-26T13:16:45.653Z,8.8
2022-08-26T13:19:12.267Z,8.4
2022-08-26T13:24:05.498Z,9.5
2022-08-26T13:26:32.132Z,9.8
2022-08-26T13:28:58.756Z,8.6
2022-08-26T13:31:25.379Z,9.5
2022-08-26T13:33:52.003Z,9.5
2022-08-26T13:36:17.142Z,8.7
2022-08-26T13:38:42.263Z,9.5
2022-08-26T13:41:08.889Z,9.9
2022-08-26T13:43:35.520Z,9.6
2022-08-26T13:46:02.143Z,8.9
2022-08-26T13:48:28.762Z,8.9
2022-08-26T13:50:55.385Z,8.9
2022-08-26T13:53:21.998Z,9.4
2022-08-26T13:55:48.633Z,9.6
2022-08-26T13:58:13.764Z,9.3
2022-08-26T14:00:40.385Z,8.5
2022-08-26T14:03:05.522Z,8.9
2022-08-26T14:05:30.653Z,9.6
2022-08-26T14:07:57.265Z,9
2022-08-26T14:10:23.902Z,10.1
2022-08-26T14:12:50.541Z,10
2022-08-26T14:15:17.142Z,9.4
2022-08-26T14:17:43.050Z,9.5
2022-08-26T14:20:09.657Z,8.6
2022-08-26T14:22:36.287Z,9.2
2022-08-26T14:25:02.912Z,10.2
2022-08-26T14:27:29.540Z,11.7
2022-08-26T14:29:54.672Z,9
2022-08-26T14:32:19.799Z,9.7
2022-08-26T14:34:46.408Z,9.6
2022-08-26T14:37:13.035Z,9.6
2022-08-26T14:39:39.665Z,9.8
2022-08-26T14:42:06.268Z,8.9
2022-08-26T14:44:32.896Z,9
2022-08-26T14:46:59.514Z,8.9
2022-08-26T14:49:26.144Z,9.2
2022-08-26T14:51:52.766Z,8.8
2022-08-26T14:56:45.169Z,8.4
2022-08-26T14:59:11.786Z,8.1
2022-08-26T15:01:38.394Z,8.5
2022-08-26T15:04:03.545Z,9.2
2022-08-26T15:06:30.149Z,8.9
2022-08-26T15:11:23.408Z,9
2022-08-26T15:13:48.537Z,8.6
2022-08-26T15:16:15.161Z,8.9
2022-08-26T15:18:40.288Z,9.5
2022-08-26T15:21:06.921Z,8.7
2022-08-26T15:26:00.162Z,8.7
2022-08-26T15:28:26.779Z,8.5
2022-08-26T15:30:53.407Z,8.7
2022-08-26T15:33:19.176Z,8.3
2022-08-26T15:35:45.791Z,8.4
2022-08-26T15:38:12.418Z,9
2022-08-26T15:40:39.058Z,8.7
2022-08-26T15:43:05.666Z,8.9
2022-08-26T15:45:32.298Z,8.2
2022-08-26T15:47:58.926Z,9.2
2022-08-26T15:50:24.047Z,9
2022-08-26T15:52:50.668Z,9.5
2022-08-26T15:55:17.295Z,9.1
2022-08-26T15:57:43.916Z,9.3
2022-08-26T16:00:10.543Z,9.2
2022-08-26T16:02:37.166Z,9.2
2022-08-26T16:07:30.414Z,9.6
2022-08-26T16:09:57.040Z,9.3
2022-08-26T16:12:22.665Z,9.2
2022-08-26T16:14:49.296Z,10.4
2022-08-26T16:17:14.428Z,10
2022-08-26T16:19:39.547Z,10.6
2022-08-26T16:22:06.178Z,10.2
2022-08-26T16:24:32.793Z,9.8
2022-08-26T16:26:59.441Z,9.8
2022-08-26T16:29:26.055Z,9.8
2022-08-26T16:31:52.717Z,10.2
2022-08-26T16:34:19.336Z,9.8
2022-08-26T16:36:45.951Z,7.1
2022-08-26T16:39:12.571Z,6.2
2022-08-26T16:44:05.839Z,6
2022-08-26T16:48:59.069Z,6.3
2022-08-26T16:51:25.696Z,6.1
2022-08-26T16:53:50.818Z,6.3
2022-08-26T16:56:16.727Z,6.8
2022-08-26T16:58:41.860Z,7.1
2022-08-26T17:01:08.484Z,6.8
2022-08-26T17:03:35.109Z,6.4
2022-08-26T17:06:01.730Z,6
2022-08-26T17:08:28.372Z,6.1
2022-08-26T17:13:21.598Z,6
2022-08-26T17:15:48.217Z,5.6
2022-08-26T17:18:14.831Z,5.7
2022-08-26T17:20:40.688Z,5.6
2022-08-26T17:23:07.301Z,6
2022-08-26T17:25:33.932Z,5.5
2022-08-26T17:28:00.554Z,5.5
2022-08-26T17:30:25.684Z,5.4
2022-08-26T17:32:52.302Z,5
2022-08-26T17:35:18.926Z,4.7
2022-08-26T17:37:45.541Z,5.7
2022-08-26T17:40:12.176Z,5.4
2022-08-26T17:42:38.791Z,7.1
2022-08-26T17:45:05.424Z,5.6
2022-08-26T17:47:30.567Z,5.6
2022-08-26T17:49:55.685Z,5.7
2022-08-26T17:52:22.302Z,6.2
2022-08-26T17:54:48.919Z,5.6
2022-08-26T17:57:15.551Z,5.1
2022-08-26T17:59:42.192Z,5.6
2022-08-26T18:02:08.799Z,5.6
2022-08-26T18:04:35.421Z,5.8
2022-08-26T18:07:02.033Z,6.6
2022-08-26T18:09:28.656Z,6
2022-08-26T18:11:55.300Z,6.1
2022-08-26T18:14:21.918Z,6.2
2022-08-26T18:16:48.537Z,6
2022-08-26T18:19:15.154Z,6.7
2022-08-26T18:21:40.322Z,5.8
2022-08-26T18:24:06.916Z,6.1
2022-08-26T18:26:33.521Z,6.1
2022-08-26T18:29:00.156Z,6.7
2022-08-26T18:31:26.774Z,6.2
2022-08-26T18:36:20.010Z,6
2022-08-26T18:38:46.647Z,6.2
2022-08-26T18:41:13.271Z,6.1
2022-08-26T18:46:06.514Z,6.4
2022-08-26T18:48:33.129Z,6.1
2022-08-26T18:50:59.753Z,6
2022-08-26T18:53:24.885Z,5.5
2022-08-26T18:55:50.588Z,5
2022-08-26T19:00:43.808Z,4.9
2022-08-26T19:08:02.191Z,5.6
2022-08-26T19:10:28.818Z,5.7
2022-08-26T19:15:20.581Z,5.6
2022-08-26T19:20:12.326Z,7.8
2022-08-26T19:22:37.453Z,7.1
2022-08-26T19:25:04.072Z,5.7
2022-08-26T19:29:57.317Z,6.4
2022-08-26T19:34:50.567Z,6
2022-08-26T19:37:15.691Z,7.5
2022-08-26T19:39:42.327Z,7.1
2022-08-26T19:44:35.576Z,6.6
2022-08-26T19:49:28.810Z,7.1
2022-08-26T19:51:55.427Z,7.3
2022-08-26T19:54:22.053Z,7.7
2022-08-26T19:59:15.320Z,8.5
2022-08-26T20:04:07.064Z,7.4
2022-08-26T20:06:32.192Z,8.2
2022-08-26T20:08:58.820Z,7.7
2022-08-26T20:13:52.059Z,7.3
2022-08-26T20:21:10.437Z,7.1
2022-08-26T20:23:37.052Z,7.1
2022-08-26T20:28:30.316Z,7.6
2022-08-26T20:33:23.554Z,7.9
2022-08-26T20:35:50.186Z,8
2022-08-26T20:48:03.285Z,8.9
2022-08-26T20:50:28.414Z,9.2
2022-08-26T20:52:55.047Z,8.7
2022-08-26T20:57:48.288Z,8.8
2022-08-26T21:02:41.542Z,9.1
2022-08-26T21:05:08.149Z,8.5
2022-08-26T21:07:34.764Z,8.8
2022-08-26T21:12:28.009Z,9.1
2022-08-26T21:14:54.645Z,8.8
2022-08-26T21:17:21.272Z,8.2
2022-08-26T21:19:47.884Z,7.7
2022-08-26T21:22:14.495Z,8.8
2022-08-26T21:27:07.770Z,9.6
2022-08-26T21:31:59.512Z,8.2
2022-08-26T21:34:26.128Z,8.4
2022-08-26T21:36:52.747Z,9.3
2022-08-26T21:41:45.994Z,7.7
2022-08-26T21:46:39.240Z,7.6
2022-08-26T21:49:05.857Z,7.4
2022-08-26T21:51:32.490Z,7.9
2022-08-26T21:56:25.727Z,8.6
2022-08-26T22:01:18.983Z,7.9
2022-08-26T22:03:44.099Z,8.7
2022-08-26T22:06:10.718Z,8.8
2022-08-26T22:11:02.478Z,9.3
2022-08-26T22:15:54.255Z,8.1
2022-08-26T22:18:19.382Z,7.8
2022-08-26T22:20:45.998Z,7.8
2022-08-26T22:25:39.234Z,8.7
2022-08-26T22:30:32.470Z,7.8
2022-08-26T22:32:59.102Z,8.4
2022-08-26T22:35:25.696Z,8.8
2022-08-26T22:40:18.947Z,8.7
2022-08-26T22:45:12.197Z,8.8
2022-08-26T22:47:38.813Z,8.2
2022-08-26T22:50:05.439Z,9.8
2022-08-26T22:54:58.681Z,8.5
2022-08-26T22:59:51.926Z,9.9
2022-08-26T23:02:17.062Z,10
2022-08-26T23:14:30.166Z,8
2022-08-26T23:16:56.789Z,8.8
2022-08-26T23:19:23.412Z,8.9
2022-08-26T23:24:16.663Z,9.4
2022-08-26T23:29:09.910Z,8.1
2022-08-26T23:31:36.527Z,9.3
2022-08-26T23:38:54.899Z,12
2022-08-26T23:41:21.530Z,10.8
2022-08-26T23:43:48.146Z,11.8
2022-08-26T23:46:14.780Z,12.8
2022-08-26T23:48:40.484Z,11.7
2022-08-26T23:56:00.356Z,12.6
2022-08-26T23:58:26.970Z,12
